Time;durP1;ratioP1;P1;durP2;ratioP2;P2;SDS_P1;SDS_P2;PMS_P1;PMS_P2;Temp;Humidity;BMP_temperature;BMP_pressure;BME280_temperature;BME280_humidity;BME280_pressure;Samples;Min_cycle;Max_cycle;Signal;HPM_P1;HPM_P2
2021/09/20 00:00:07;;;;;;;8.45;5.00;;;;;;;17.64;95.10;101674.88;5094721;28;20063;-62
2021/09/20 00:02:32;;;;;;;7.63;4.40;;;;;;;17.60;96.13;101685.31;5076046;28;20055;-63
2021/09/20 00:04:58;;;;;;;9.70;4.78;;;;;;;17.51;95.68;101685.81;5094666;28;20632;-61
2021/09/20 00:07:23;;;;;;;9.57;4.67;;;;;;;17.44;95.75;101696.69;5095916;28;20072;-63
2021/09/20 00:09:49;;;;;;;8.23;5.28;;;;;;;17.31;97.11;101686.81;5094808;28;20078;-63
2021/09/20 00:12:14;;;;;;;9.80;5.47;;;;;;;17.38;97.12;101692.16;5076478;28;20495;-62
2021/09/20 00:14:40;;;;;;;8.77;4.77;;;;;;;17.35;97.80;101698.84;5094152;28;20637;-63
2021/09/20 00:17:06;;;;;;;9.85;5.20;;;;;;;17.33;98.71;101695.53;5094874;28;20040;-62
2021/09/20 00:19:31;;;;;;;8.10;4.90;;;;;;;17.29;97.88;101692.41;5094134;28;20123;-63
2021/09/20 00:21:57;;;;;;;11.70;4.87;;;;;;;17.42;97.26;101704.19;5094834;28;20040;-63
2021/09/20 00:24:23;;;;;;;11.15;5.55;;;;;;;17.55;96.08;101700.56;5094306;28;20555;-62
2021/09/20 00:26:48;;;;;;;8.50;5.00;;;;;;;17.60;95.47;101704.25;5076312;28;20044;-63
2021/09/20 00:29:14;;;;;;;8.80;5.22;;;;;;;17.66;94.74;101702.56;5075041;28;20395;-63
2021/09/20 00:31:39;;;;;;;12.60;5.80;;;;;;;17.67;95.24;101706.06;5093551;28;20123;-62
2021/09/20 00:34:05;;;;;;;10.97;5.17;;;;;;;17.71;93.48;101713.53;5093675;28;20351;-63
2021/09/20 00:36:30;;;;;;;9.32;5.07;;;;;;;17.71;92.77;101707.28;5093425;28;20394;-62
2021/09/20 00:38:56;;;;;;;11.80;5.03;;;;;;;17.78;92.47;101694.53;5075464;28;20480;-61
2021/09/20 00:41:22;;;;;;;13.65;5.10;;;;;;;17.76;92.45;101704.72;5093588;28;20115;-61
2021/09/20 00:43:47;;;;;;;11.15;5.57;;;;;;;17.67;92.91;101697.94;5058922;28;20043;-62
2021/09/20 00:46:13;;;;;;;9.88;5.90;;;;;;;17.63;92.71;101709.22;5075738;28;20044;-62
2021/09/20 00:48:39;;;;;;;8.70;4.93;;;;;;;17.57;93.13;101701.16;5093054;28;20577;-62
2021/09/20 00:51:05;;;;;;;7.30;5.03;;;;;;;17.41;95.20;101702.53;5075966;28;20040;-63
2021/09/20 00:53:30;;;;;;;8.20;5.18;;;;;;;17.47;95.00;101707.06;5075809;28;20047;-63
2021/09/20 00:55:56;;;;;;;10.70;5.77;;;;;;;17.41;95.66;101703.34;5093801;28;20131;-62
2021/09/20 00:58:21;;;;;;;9.32;5.35;;;;;;;17.39;95.66;101708.16;5093867;28;20752;-63
2021/09/20 01:00:47;;;;;;;9.68;6.35;;;;;;;17.34;nan;101705.28;5058737;28;20052;-63
2021/09/20 01:03:13;;;;;;;12.10;5.30;;;;;;;17.21;99.19;101698.09;5058836;28;20120;-62
2021/09/20 01:05:38;;;;;;;9.83;5.10;;;;;;;17.16;100.00;101701.47;5093656;28;20043;-63
2021/09/20 01:08:04;;;;;;;10.35;5.22;;;;;;;17.14;100.00;101700.03;5093672;28;20355;-63
2021/09/20 01:10:30;;;;;;;8.98;4.70;;;;;;;17.14;100.00;101702.75;5075347;28;20089;-62
2021/09/20 01:12:56;;;;;;;9.43;5.47;;;;;;;17.11;100.00;101708.59;5093402;28;20064;-63
2021/09/20 01:15:21;;;;;;;9.48;5.78;;;;;;;17.00;100.00;101702.81;5093375;28;20115;-62
2021/09/20 01:17:47;;;;;;;10.07;5.53;;;;;;;17.03;100.00;101702.38;5092852;28;20040;-63
2021/09/20 01:20:13;;;;;;;11.93;6.23;;;;;;;17.18;100.00;101707.50;5074933;28;20257;-62
2021/09/20 01:22:39;;;;;;;12.10;6.15;;;;;;;17.19;100.00;101702.91;5092997;28;20040;-63
2021/09/20 01:25:09;;;;;;;10.52;6.65;;;;;;;17.25;100.00;101710.13;5092893;28;20537;-62
2021/09/20 01:27:34;;;;;;;14.70;6.70;;;;;;;17.31;100.00;101706.56;5075164;28;20067;-62
2021/09/20 01:30:00;;;;;;;11.30;6.43;;;;;;;17.18;100.00;101699.41;5093121;28;20649;-63
2021/09/20 01:32:26;;;;;;;11.40;6.60;;;;;;;17.20;100.00;101708.09;5093057;28;20040;-58
2021/09/20 01:34:52;;;;;;;10.60;6.13;;;;;;;17.22;100.00;101705.16;5077371;28;20032;-63
2021/09/20 01:37:17;;;;;;;12.93;6.70;;;;;;;17.10;100.00;101706.94;5062458;28;20044;-61
2021/09/20 01:39:43;;;;;;;11.73;6.57;;;;;;;16.95;100.00;101705.31;5062073;28;20035;-63
2021/09/20 01:42:09;;;;;;;14.05;6.38;;;;;;;16.93;100.00;101712.81;5096940;28;20043;-63
2021/09/20 01:44:35;;;;;;;12.95;6.53;;;;;;;16.94;100.00;101709.06;5096943;28;20100;-62
2021/09/20 01:47:02;;;;;;;13.43;7.05;;;;;;;16.85;100.00;101705.78;5096684;28;20068;-62
2021/09/20 01:49:27;;;;;;;;;;;;;;;16.92;100.00;101711.97;5097037;28;20057;-56
2021/09/20 01:51:54;;;;;;;12.20;6.43;;;;;;;16.78;100.00;101695.00;5078873;28;20011;-63
2021/09/20 01:54:19;;;;;;;13.60;7.45;;;;;;;16.77;100.00;101701.47;5097224;28;20031;-63
2021/09/20 01:56:45;;;;;;;10.95;7.15;;;;;;;16.68;100.00;101696.53;5096544;28;20102;-63
2021/09/20 01:59:10;;;;;;;12.73;6.50;;;;;;;16.67;100.00;101697.56;5097198;28;20032;-62
2021/09/20 02:01:36;;;;;;;12.48;6.93;;;;;;;16.58;100.00;101705.91;5061865;28;20102;-61
2021/09/20 02:04:02;;;;;;;10.63;7.00;;;;;;;16.53;100.00;101702.19;5096541;28;20381;-62
2021/09/20 02:06:28;;;;;;;16.25;7.95;;;;;;;16.46;100.00;101697.66;5096664;28;20048;-63
2021/09/20 02:08:54;;;;;;;12.40;7.22;;;;;;;16.42;100.00;101701.84;5096400;28;20452;-62
2021/09/20 02:11:22;;;;;;;14.07;7.60;;;;;;;16.36;100.00;101691.88;5078380;28;20051;-62
2021/09/20 02:13:48;;;;;;;12.57;7.17;;;;;;;16.33;100.00;101703.09;5079119;28;20085;-62
2021/09/20 02:16:15;;;;;;;14.77;6.83;;;;;;;16.26;100.00;101696.91;5096424;28;20573;-63
2021/09/20 02:18:41;;;;;;;12.75;7.35;;;;;;;16.19;100.00;101707.72;5078206;28;20272;-62
2021/09/20 02:21:10;;;;;;;13.20;7.22;;;;;;;16.11;100.00;101710.66;5092820;28;20459;-55
2021/09/20 02:23:37;;;;;;;13.73;7.20;;;;;;;16.07;100.00;101704.03;5075683;28;20036;-62
2021/09/20 02:26:04;;;;;;;12.57;7.23;;;;;;;16.07;100.00;101709.41;5075771;28;20349;-62
2021/09/20 02:28:29;;;;;;;;;;;;;;;15.96;100.00;101711.72;5058345;28;20288;-62
2021/09/20 02:30:54;;;;;;;10.43;5.73;;;;;;;15.89;100.00;101713.59;5075798;28;19908;-61
2021/09/20 02:33:20;;;;;;;10.90;6.40;;;;;;;15.92;100.00;101721.25;5076029;28;20040;-62
2021/09/20 02:35:46;;;;;;;14.13;8.65;;;;;;;15.79;100.00;101714.00;5075338;28;20285;-62
2021/09/20 02:38:12;;;;;;;14.02;8.00;;;;;;;15.81;100.00;101719.19;5076229;28;20041;-63
2021/09/20 02:40:37;;;;;;;11.48;7.00;;;;;;;15.85;100.00;101721.22;5057523;28;20032;-62
2021/09/20 02:43:03;;;;;;;13.85;8.00;;;;;;;15.78;100.00;101715.84;5057872;28;20044;-62
2021/09/20 02:45:29;;;;;;;12.18;7.32;;;;;;;15.68;100.00;101726.22;5074412;28;20045;-63
2021/09/20 02:47:54;;;;;;;11.63;7.55;;;;;;;15.72;100.00;101721.25;5057429;28;20036;-62
2021/09/20 02:50:20;;;;;;;12.50;7.83;;;;;;;15.66;100.00;101730.16;5075642;28;20388;-62
2021/09/20 02:52:45;;;;;;;17.50;8.67;;;;;;;15.67;100.00;101734.50;5075124;28;20036;-63
2021/09/20 02:55:12;;;;;;;13.13;7.43;;;;;;;15.57;100.00;101721.44;5057543;28;20292;-62
2021/09/20 02:57:38;;;;;;;17.77;7.97;;;;;;;15.56;100.00;101727.88;5075278;28;20032;-62
2021/09/20 03:00:05;;;;;;;14.07;8.20;;;;;;;15.58;100.00;101725.84;5075495;28;20041;-65
2021/09/20 03:02:31;;;;;;;11.57;7.33;;;;;;;15.62;100.00;101735.16;5070513;28;20053;-62
2021/09/20 03:04:57;;;;;;;13.93;6.93;;;;;;;15.60;100.00;101726.44;5054857;28;20286;-62
2021/09/20 03:07:22;;;;;;;13.83;7.27;;;;;;;15.56;100.00;101731.41;5054960;28;20480;-62
2021/09/20 03:09:48;;;;;;;14.70;8.00;;;;;;;15.63;100.00;101739.50;5053887;28;20090;-60
2021/09/20 03:12:13;;;;;;;13.40;7.57;;;;;;;15.61;100.00;101733.50;5052768;28;20560;-62
2021/09/20 03:14:39;;;;;;;14.93;7.80;;;;;;;15.58;100.00;101740.13;5056775;28;20286;-62
2021/09/20 03:17:05;;;;;;;15.13;8.70;;;;;;;15.58;100.00;101733.91;5070058;28;20477;-62
2021/09/20 03:19:30;;;;;;;14.55;8.27;;;;;;;15.56;100.00;101746.75;5071044;28;20056;-63
2021/09/20 03:21:56;;;;;;;14.35;8.18;;;;;;;15.40;100.00;101746.13;5053621;28;20132;-62
2021/09/20 03:24:21;;;;;;;17.25;7.85;;;;;;;15.52;100.00;101740.97;5053850;28;20052;-62
2021/09/20 03:26:47;;;;;;;15.25;8.05;;;;;;;15.46;100.00;101745.31;5054877;28;20458;-62
2021/09/20 03:29:12;;;;;;;14.43;8.20;;;;;;;15.51;100.00;101743.84;5053430;28;20091;-62
2021/09/20 03:31:38;;;;;;;14.07;8.50;;;;;;;15.53;100.00;101741.78;5063629;28;20032;-62
2021/09/20 03:34:03;;;;;;;18.30;9.07;;;;;;;15.37;100.00;101743.84;5074798;28;20153;-62
2021/09/20 03:36:30;;;;;;;16.30;7.40;;;;;;;15.37;100.00;101751.94;5074540;28;20044;-62
2021/09/20 03:38:55;;;;;;;13.55;7.57;;;;;;;15.37;100.00;101756.47;5074258;28;20045;-63
2021/09/20 03:41:21;;;;;;;15.10;7.20;;;;;;;15.36;100.00;101758.38;5073402;28;20047;-63
2021/09/20 03:43:46;;;;;;;15.02;7.85;;;;;;;15.30;100.00;101765.41;5057626;28;20055;-62
2021/09/20 03:46:12;;;;;;;18.17;8.10;;;;;;;15.19;100.00;101771.38;5054380;28;20114;-62
2021/09/20 03:48:38;;;;;;;15.82;7.53;;;;;;;15.13;100.00;101770.34;5054896;28;20393;-63
2021/09/20 03:51:04;;;;;;;12.10;7.25;;;;;;;15.12;100.00;101774.06;5054789;28;20041;-63
2021/09/20 03:53:30;;;;;;;19.67;7.68;;;;;;;15.18;100.00;101769.72;5053233;28;20048;-63
2021/09/20 03:55:56;;;;;;;17.37;7.70;;;;;;;15.08;100.00;101769.28;5053492;28;20063;-63
2021/09/20 03:58:21;;;;;;;19.55;7.93;;;;;;;14.98;100.00;101773.16;5054142;28;20282;-63
2021/09/20 04:00:47;;;;;;;14.80;7.80;;;;;;;14.99;100.00;101777.56;5053389;28;20047;-62
2021/09/20 04:03:12;;;;;;;22.40;11.90;;;;;;;15.15;100.00;101775.50;5053910;28;20056;-63
2021/09/20 04:05:38;;;;;;;16.25;9.38;;;;;;;15.09;100.00;101769.06;5055535;28;20055;-62
2021/09/20 04:08:03;;;;;;;23.52;11.45;;;;;;;15.12;100.00;101773.22;5055607;28;20029;-61
2021/09/20 04:10:29;;;;;;;20.80;9.60;;;;;;;15.04;100.00;101764.31;5053977;28;20474;-63
2021/09/20 04:12:55;;;;;;;32.70;15.40;;;;;;;15.10;100.00;101780.69;5054926;28;20041;-62
2021/09/20 04:15:20;;;;;;;23.13;10.63;;;;;;;15.08;100.00;101777.38;5057175;28;20047;-59
2021/09/20 04:17:46;;;;;;;32.47;17.97;;;;;;;15.08;100.00;101778.19;5062284;28;20064;-63
2021/09/20 04:20:12;;;;;;;20.05;10.75;;;;;;;15.09;100.00;101781.72;5065657;28;20021;-64
2021/09/20 04:22:38;;;;;;;;;;;;;;;15.03;100.00;101781.50;5063285;28;20432;-63
2021/09/20 04:25:05;;;;;;;28.97;12.33;;;;;;;15.03;100.00;101780.66;5063954;28;19974;-61
2021/09/20 04:27:30;;;;;;;13.70;8.05;;;;;;;15.02;100.00;101787.06;5061729;28;20036;-63
2021/09/20 04:29:56;;;;;;;16.80;8.80;;;;;;;14.88;100.00;101794.28;5062696;28;20147;-62
2021/09/20 04:32:22;;;;;;;15.60;7.80;;;;;;;14.81;100.00;101788.03;5062732;28;20273;-63
2021/09/20 04:34:47;;;;;;;16.02;8.70;;;;;;;14.77;100.00;101793.84;5063002;28;20531;-63
2021/09/20 04:37:14;;;;;;;16.47;8.13;;;;;;;14.72;100.00;101795.44;5064242;28;20388;-62
2021/09/20 04:39:39;;;;;;;;;;;;;;;14.73;100.00;101797.94;5064335;28;20249;-62
2021/09/20 04:42:05;;;;;;;15.90;7.27;;;;;;;14.69;100.00;101801.22;5063170;28;19912;-63
2021/09/20 04:44:31;;;;;;;15.20;7.85;;;;;;;14.63;100.00;101798.25;5065366;28;20033;-62
2021/09/20 04:46:56;;;;;;;14.00;7.75;;;;;;;14.62;100.00;101806.56;5063512;28;20079;-63
2021/09/20 04:49:22;;;;;;;16.95;7.78;;;;;;;14.58;100.00;101806.09;5063176;28;20037;-63
2021/09/20 04:51:47;;;;;;;13.50;7.70;;;;;;;14.58;100.00;101816.88;5061288;28;20045;-62
2021/09/20 04:54:13;;;;;;;16.47;7.60;;;;;;;14.56;100.00;101823.50;5053212;28;20457;-63
2021/09/20 04:56:38;;;;;;;18.90;8.37;;;;;;;14.55;100.00;101816.47;5054188;28;20124;-62
2021/09/20 04:59:04;;;;;;;17.10;7.47;;;;;;;14.55;100.00;101817.28;5058239;28;20029;-63
2021/09/20 05:01:29;;;;;;;16.40;8.13;;;;;;;14.49;100.00;101810.81;5056333;28;20340;-62
2021/09/20 05:03:55;;;;;;;18.25;8.85;;;;;;;14.44;100.00;101815.97;5073871;28;20479;-63
2021/09/20 05:06:21;;;;;;;13.77;7.05;;;;;;;14.42;100.00;101814.53;5055373;28;20048;-63
2021/09/20 05:08:46;;;;;;;15.70;7.22;;;;;;;14.42;100.00;101815.34;5054750;28;20124;-63
2021/09/20 05:11:12;;;;;;;15.23;7.80;;;;;;;14.36;100.00;101817.97;5073090;28;20040;-63
2021/09/20 05:13:37;;;;;;;12.93;7.63;;;;;;;14.32;100.00;101812.19;5038301;28;20648;-62
2021/09/20 05:16:04;;;;;;;14.18;7.30;;;;;;;14.32;100.00;101822.94;5084814;28;20285;-62
2021/09/20 05:18:29;;;;;;;16.90;7.30;;;;;;;14.32;100.00;101823.75;5073797;28;20221;-63
2021/09/20 05:20:55;;;;;;;19.02;7.88;;;;;;;14.30;100.00;101823.13;5087925;28;20147;-62
2021/09/20 05:23:20;;;;;;;17.52;7.95;;;;;;;14.26;100.00;101829.09;5054851;28;20490;-63
2021/09/20 05:25:46;;;;;;;15.80;6.93;;;;;;;14.24;100.00;101831.97;5078708;28;20540;-62
2021/09/20 05:28:11;;;;;;;16.23;7.63;;;;;;;14.19;100.00;101823.69;5093052;28;20059;-63
2021/09/20 05:30:37;;;;;;;21.43;8.27;;;;;;;14.21;100.00;101832.38;5090698;28;20054;-63
2021/09/20 05:33:04;;;;;;;16.23;8.40;;;;;;;14.21;100.00;101832.38;5082623;28;20268;-61
2021/09/20 05:35:29;;;;;;;;;;;;;;;14.20;100.00;101838.78;5069415;28;20468;-63
2021/09/20 05:37:55;;;;;;;13.30;7.33;;;;;;;14.19;100.00;101835.25;5074480;28;20002;-61
2021/09/20 05:40:22;;;;;;;15.60;8.10;;;;;;;14.21;100.00;101845.81;5092761;28;20132;-63
2021/09/20 05:42:48;;;;;;;15.30;7.85;;;;;;;14.20;100.00;101852.25;5093011;28;20364;-63
2021/09/20 05:45:14;;;;;;;13.20;7.80;;;;;;;14.25;100.00;101855.16;5091996;28;20130;-61
2021/09/20 05:47:41;;;;;;;16.17;8.38;;;;;;;14.31;100.00;101853.56;5081084;28;20032;-62
2021/09/20 05:50:08;;;;;;;15.15;8.77;;;;;;;14.29;100.00;101858.28;5064864;28;20036;-62
2021/09/20 05:52:35;;;;;;;15.88;7.78;;;;;;;14.31;100.00;101865.16;5069816;28;20036;-62
2021/09/20 05:55:00;;;;;;;14.82;7.70;;;;;;;14.29;100.00;101859.13;5092151;28;20044;-62
2021/09/20 05:57:26;;;;;;;17.10;8.40;;;;;;;14.30;100.00;101863.47;5086693;28;20542;-62
2021/09/20 05:59:52;;;;;;;16.92;8.07;;;;;;;14.32;100.00;101869.50;5092465;28;20040;-59
2021/09/20 06:02:17;;;;;;;14.93;7.45;;;;;;;14.32;100.00;101860.59;5068051;28;20376;-62
2021/09/20 06:04:43;;;;;;;15.57;8.80;;;;;;;14.41;100.00;101863.97;5092595;28;20136;-62
2021/09/20 06:07:10;;;;;;;15.38;8.18;;;;;;;14.52;100.00;101860.75;5086017;28;20047;-62
2021/09/20 06:09:36;;;;;;;14.77;7.88;;;;;;;14.58;100.00;101864.50;5074147;28;20387;-62
2021/09/20 06:12:03;;;;;;;13.77;7.85;;;;;;;14.57;100.00;101862.84;5059955;28;20029;-63
2021/09/20 06:14:29;;;;;;;16.33;8.60;;;;;;;14.60;100.00;101867.84;5071708;28;20063;-62
2021/09/20 06:16:54;;;;;;;14.93;8.32;;;;;;;14.67;100.00;101860.63;5071692;28;20741;-61
2021/09/20 06:19:20;;;;;;;16.30;7.57;;;;;;;14.75;100.00;101863.19;5073608;28;20461;-62
2021/09/20 06:21:45;;;;;;;14.83;8.47;;;;;;;14.83;100.00;101870.25;5063316;28;20036;-62
2021/09/20 06:24:11;;;;;;;16.83;8.20;;;;;;;14.94;100.00;101873.44;5082651;28;20044;-61
2021/09/20 06:26:36;;;;;;;17.77;7.50;;;;;;;14.89;100.00;101868.66;5090180;28;20471;-62
2021/09/20 06:29:02;;;;;;;16.10;7.93;;;;;;;14.98;100.00;101863.94;5095750;28;20074;-62
2021/09/20 06:31:27;;;;;;;16.65;7.97;;;;;;;15.07;100.00;101873.50;5090118;28;20330;-62
2021/09/20 06:33:53;;;;;;;16.08;8.77;;;;;;;15.16;100.00;101876.84;5096138;28;20044;-63
2021/09/20 06:36:19;;;;;;;16.67;8.02;;;;;;;15.20;100.00;101878.09;5071766;28;20094;-63
2021/09/20 06:38:44;;;;;;;14.57;7.70;;;;;;;15.26;100.00;101869.25;5096160;28;20047;-62
2021/09/20 06:41:09;;;;;;;13.80;8.37;;;;;;;15.34;100.00;101871.75;5089808;28;20583;-62
2021/09/20 06:43:35;;;;;;;17.33;7.87;;;;;;;15.43;100.00;101874.25;5077819;28;20377;-62
2021/09/20 06:46:00;;;;;;;12.17;7.33;;;;;;;15.50;100.00;101875.13;5071447;28;20613;-61
2021/09/20 06:48:26;;;;;;;14.87;7.87;;;;;;;15.52;100.00;101874.91;5075475;28;20056;-62
2021/09/20 06:50:51;;;;;;;11.50;7.13;;;;;;;15.54;100.00;101873.69;5061394;28;20063;-62
2021/09/20 06:53:17;;;;;;;19.30;9.00;;;;;;;15.68;100.00;101879.94;5058372;28;20753;-63
2021/09/20 06:55:42;;;;;;;18.07;8.30;;;;;;;15.71;100.00;101884.09;5078289;28;20074;-61
2021/09/20 06:58:08;;;;;;;18.00;8.50;;;;;;;15.64;100.00;101884.06;5059506;28;20273;-63
2021/09/20 07:00:34;;;;;;;23.13;7.60;;;;;;;15.71;100.00;101881.41;5077998;28;20379;-62
2021/09/20 07:02:59;;;;;;;15.10;8.23;;;;;;;15.84;100.00;101886.81;5075353;28;20052;-62
2021/09/20 07:05:25;;;;;;;22.63;9.40;;;;;;;15.82;100.00;101882.66;5077979;28;20161;-62
2021/09/20 07:07:50;;;;;;;15.80;8.05;;;;;;;15.91;100.00;101879.59;5077917;28;20040;-63
2021/09/20 07:10:16;;;;;;;14.17;8.27;;;;;;;16.04;100.00;101883.34;5076949;28;20037;-63
2021/09/20 07:12:43;;;;;;;16.63;8.10;;;;;;;16.09;100.00;101880.03;5060573;28;20835;-63
2021/09/20 07:15:11;;;;;;;15.13;7.80;;;;;;;16.22;100.00;101890.00;5076953;28;20085;-63
2021/09/20 07:17:37;;;;;;;16.67;7.63;;;;;;;16.18;100.00;101885.00;5077404;28;20374;-63
2021/09/20 07:20:04;;;;;;;16.63;8.05;;;;;;;16.25;100.00;101893.09;5096180;28;20262;-61
2021/09/20 07:22:30;;;;;;;18.63;8.27;;;;;;;16.29;100.00;101893.50;5090062;28;20522;-62
2021/09/20 07:24:55;;;;;;;15.03;8.50;;;;;;;16.31;100.00;101894.13;5077200;28;20268;-63
2021/09/20 07:27:21;;;;;;;17.98;8.65;;;;;;;16.51;100.00;101898.69;5053835;28;20044;-63
2021/09/20 07:29:47;;;;;;;14.82;7.28;;;;;;;16.46;100.00;101907.41;5094956;28;20029;-63
2021/09/20 07:32:12;;;;;;;14.75;7.63;;;;;;;16.49;100.00;101897.03;5089572;28;20375;-63
2021/09/20 07:34:38;;;;;;;12.57;7.13;;;;;;;16.77;97.23;101914.03;5055965;28;20066;-62
2021/09/20 07:37:03;;;;;;;11.65;6.72;;;;;;;16.78;95.00;101913.00;5062024;28;20353;-62
2021/09/20 07:39:30;;;;;;;15.63;8.30;;;;;;;16.80;92.52;101912.75;5056515;28;20040;-62
2021/09/20 07:41:57;;;;;;;;;;;;;;;16.89;91.83;101916.91;5080278;28;20059;-63
2021/09/20 07:44:22;;;;;;;21.02;8.50;;;;;;;17.01;91.36;101912.53;5093596;28;19922;-63
2021/09/20 07:46:48;;;;;;;13.55;7.68;;;;;;;16.87;90.50;101914.41;5085021;28;20044;-63
2021/09/20 07:49:13;;;;;;;20.90;9.10;;;;;;;17.03;88.02;101915.84;5056179;28;20133;-63
2021/09/20 07:51:39;;;;;;;18.47;8.17;;;;;;;17.23;85.94;101923.06;5061535;28;20036;-63
2021/09/20 07:54:04;;;;;;;12.73;7.37;;;;;;;17.08;85.06;101925.22;5055774;28;20289;-61
2021/09/20 07:56:31;;;;;;;15.48;7.63;;;;;;;17.15;84.49;101928.72;5083308;28;20042;-63
2021/09/20 07:59:01;;;;;;;14.17;8.50;;;;;;;17.29;83.71;101927.63;5075705;28;20132;-64
2021/09/20 08:01:28;;;;;;;14.80;7.97;;;;;;;17.41;84.32;101930.47;5058546;28;20284;-62
2021/09/20 08:03:54;;;;;;;14.37;8.53;;;;;;;17.53;84.13;101935.22;5075803;28;20289;-62
2021/09/20 08:06:21;;;;;;;13.95;8.02;;;;;;;17.60;84.33;101928.75;5075707;28;20337;-62
2021/09/20 08:08:47;;;;;;;15.37;8.47;;;;;;;17.59;81.36;101937.06;5094276;28;20047;-63
2021/09/20 08:11:12;;;;;;;13.27;8.25;;;;;;;17.51;79.49;101942.72;5075568;28;20269;-64
2021/09/20 08:13:38;;;;;;;14.20;8.57;;;;;;;17.67;79.21;101944.09;5094141;28;20040;-64
2021/09/20 08:16:04;;;;;;;14.10;7.63;;;;;;;17.71;78.67;101950.72;5075732;28;20036;-62
2021/09/20 08:18:30;;;;;;;18.30;8.35;;;;;;;17.71;77.96;101950.72;5093784;28;20039;-63
2021/09/20 08:20:56;;;;;;;13.40;8.07;;;;;;;17.89;76.09;101953.53;5076375;28;20055;-63
2021/09/20 08:23:22;;;;;;;18.23;9.32;;;;;;;17.88;75.67;101946.47;5075626;28;20044;-62
2021/09/20 08:25:47;;;;;;;12.90;8.10;;;;;;;18.13;75.04;101959.25;5059167;28;20524;-62
2021/09/20 08:28:13;;;;;;;15.63;8.93;;;;;;;18.09;75.87;101963.44;5092018;28;20032;-62
2021/09/20 08:30:39;;;;;;;13.88;8.27;;;;;;;18.33;74.88;101969.13;5063373;28;20479;-61
2021/09/20 08:33:05;;;;;;;15.18;8.90;;;;;;;18.41;73.97;101971.53;5081434;28;20039;-62
2021/09/20 08:35:31;;;;;;;16.00;8.45;;;;;;;18.61;72.66;101978.69;5081946;28;20070;-62
2021/09/20 08:37:58;;;;;;;15.25;9.48;;;;;;;18.68;72.95;101979.44;5065203;28;20132;-63
2021/09/20 08:40:26;;;;;;;14.80;8.33;;;;;;;18.89;70.60;101985.50;5080988;28;20059;-62
2021/09/20 08:42:52;;;;;;;14.00;7.77;;;;;;;19.41;68.65;101987.09;5081908;28;20326;-62
2021/09/20 08:45:19;;;;;;;12.00;7.47;;;;;;;19.47;66.81;101976.13;5064440;28;20269;-61
2021/09/20 08:47:48;;;;;;;11.97;7.47;;;;;;;19.73;65.46;101974.16;5084741;28;20205;-62
2021/09/20 08:50:21;;;;;;;11.97;7.70;;;;;;;20.23;62.60;101985.78;5064847;28;20249;-62
2021/09/20 08:52:47;;;;;;;14.13;7.57;;;;;;;20.78;60.42;101981.13;5082740;28;20505;-63
2021/09/20 08:55:14;;;;;;;13.85;8.02;;;;;;;21.34;58.07;101987.00;5081676;28;20048;-62
2021/09/20 08:57:41;;;;;;;16.40;8.23;;;;;;;21.47;57.07;101995.97;5062833;28;20126;-61
2021/09/20 09:00:09;;;;;;;11.77;7.40;;;;;;;22.20;54.69;102000.88;5083400;28;20029;-62
2021/09/20 09:02:34;;;;;;;14.10;8.33;;;;;;;22.82;53.28;102009.25;5081343;28;20059;-64
2021/09/20 09:05:31;;;;;;;13.88;7.43;;;;;;;23.57;51.30;102011.63;5082643;28;20040;-62
2021/09/20 09:08:01;;;;;;;11.90;7.83;;;;;;;24.17;48.17;102007.09;5082174;28;20123;-62
2021/09/20 09:10:30;;;;;;;12.87;7.13;;;;;;;24.59;46.78;102021.09;5081727;28;20043;-64
2021/09/20 09:12:56;;;;;;;10.87;7.37;;;;;;;24.87;45.67;102019.97;5061338;28;20051;-65
2021/09/20 09:15:26;;;;;;;12.23;7.40;;;;;;;25.31;43.98;102020.75;5080760;28;20032;-64
2021/09/20 09:17:55;;;;;;;9.83;6.67;;;;;;;25.54;42.54;102022.22;5081995;28;20102;-63
2021/09/20 09:20:33;;;;;;;10.57;6.37;;;;;;;25.98;40.85;102031.09;5062948;28;20101;-63
2021/09/20 09:22:58;;;;;;;9.20;5.40;;;;;;;25.85;40.85;102038.78;5080290;28;20036;-61
2021/09/20 09:25:30;;;;;;;;;;;;;;;26.17;39.72;102037.75;5081836;28;20023;-64
2021/09/20 09:28:02;;;;;;;10.70;5.43;;;;;;;26.16;39.37;102044.31;5082162;28;19959;-62
2021/09/20 09:30:38;;;;;;;12.00;5.70;;;;;;;26.19;39.20;102034.75;5081518;28;20036;-62
2021/09/20 09:33:18;;;;;;;9.93;5.80;;;;;;;26.44;39.10;102041.34;5074794;28;20115;-64
2021/09/20 09:35:46;;;;;;;8.63;5.43;;;;;;;26.59;36.82;102038.56;5072879;28;20071;-63
2021/09/20 09:38:13;;;;;;;7.63;5.23;;;;;;;26.99;36.75;102036.06;5054658;28;20124;-63
2021/09/20 09:40:44;;;;;;;9.37;5.23;;;;;;;27.44;36.61;102040.84;5072367;28;20036;-64
2021/09/20 09:43:10;;;;;;;9.60;4.40;;;;;;;27.22;36.67;102031.06;5072696;28;20111;-64
2021/09/20 09:45:36;;;;;;;7.73;5.03;;;;;;;27.49;34.91;102040.84;5054172;28;20036;-64
2021/09/20 09:48:06;;;;;;;;;;;;;;;27.73;34.78;102037.44;5072762;28;20047;-64
2021/09/20 09:50:32;;;;;;;9.93;5.03;;;;;;;27.99;34.67;102048.28;5072204;28;19931;-63
2021/09/20 09:52:59;;;;;;;9.77;5.70;;;;;;;28.31;33.93;102044.22;5072694;28;20044;-63
2021/09/20 09:55:25;;;;;;;7.90;4.68;;;;;;;28.22;33.10;102043.22;5073853;28;20040;-63
2021/09/20 09:57:52;;;;;;;7.93;4.38;;;;;;;28.52;33.72;102041.28;5077512;28;20033;-64
2021/09/20 10:00:20;;;;;;;11.75;3.83;;;;;;;28.46;32.76;102037.75;5084406;28;20501;-63
2021/09/20 10:02:48;;;;;;;6.43;3.88;;;;;;;28.46;32.10;102044.09;5085573;28;20032;-63
2021/09/20 10:05:22;;;;;;;6.78;4.13;;;;;;;28.58;31.44;102045.63;5083933;28;20113;-62
2021/09/20 10:07:50;;;;;;;7.82;4.50;;;;;;;28.57;31.27;102049.50;5083683;28;20087;-66
2021/09/20 10:10:17;;;;;;;7.10;3.72;;;;;;;28.88;31.28;102041.00;5084838;28;20104;-62
2021/09/20 10:12:45;;;;;;;6.20;3.83;;;;;;;28.94;30.82;102042.56;5067289;28;20063;-61
2021/09/20 10:15:14;;;;;;;5.38;3.83;;;;;;;28.90;31.45;102039.56;5083966;28;20025;-63
2021/09/20 10:17:40;;;;;;;4.75;3.55;;;;;;;29.29;31.24;102037.75;5084376;28;20105;-62
2021/09/20 10:20:09;;;;;;;4.40;3.30;;;;;;;29.49;30.86;102035.88;5085407;28;20016;-65
2021/09/20 10:22:34;;;;;;;9.20;3.80;;;;;;;29.77;28.81;102042.38;5083982;28;20029;-64
2021/09/20 10:25:01;;;;;;;8.73;4.07;;;;;;;30.08;28.77;102041.13;5084123;28;20038;-64
2021/09/20 10:27:29;;;;;;;5.47;3.30;;;;;;;30.57;28.42;102043.63;5084908;28;20452;-62
2021/09/20 10:30:00;;;;;;;6.78;3.05;;;;;;;30.72;29.45;102048.06;5083824;28;20033;-64
2021/09/20 10:32:28;;;;;;;5.82;3.45;;;;;;;30.95;29.74;102040.75;5083061;28;20029;-63
2021/09/20 10:35:25;;;;;;;5.45;3.58;;;;;;;31.07;27.30;102050.44;5084276;28;20020;-63
2021/09/20 10:37:53;;;;;;;6.63;3.95;;;;;;;31.45;27.75;102048.28;5083418;28;20136;-63
2021/09/20 10:40:19;;;;;;;7.75;3.95;;;;;;;32.12;26.01;102054.28;5065718;28;20057;-63
2021/09/20 10:42:56;;;;;;;7.32;4.90;;;;;;;32.55;25.67;102049.38;5084909;28;20031;-64
2021/09/20 10:45:37;;;;;;;11.35;5.22;;;;;;;32.23;26.19;102048.50;5083330;28;20108;-63
2021/09/20 10:48:16;;;;;;;9.77;3.60;;;;;;;31.65;26.87;102042.66;5066768;28;20093;-62
2021/09/20 10:50:45;;;;;;;5.50;3.47;;;;;;;31.83;27.37;102052.78;5099662;28;20557;-63
2021/09/20 10:53:22;;;;;;;5.25;3.72;;;;;;;31.81;26.21;102043.94;5084582;28;20036;-64
2021/09/20 10:56:03;;;;;;;5.32;3.75;;;;;;;32.25;25.15;102044.28;5085329;28;20040;-63
2021/09/20 10:58:32;;;;;;;5.53;3.78;;;;;;;33.06;25.67;102049.94;5084979;28;20047;-63
2021/09/20 11:01:16;;;;;;;6.70;3.90;;;;;;;33.36;24.88;102054.91;5084641;28;20032;-64
2021/09/20 11:03:49;;;;;;;5.72;3.33;;;;;;;33.69;25.19;102051.72;5065669;28;20048;-64
2021/09/20 11:06:20;;;;;;;6.20;3.38;;;;;;;33.56;24.58;102051.53;5067965;28;20471;-61
2021/09/20 11:09:06;;;;;;;6.45;3.55;;;;;;;33.11;25.06;102054.53;5066525;28;20094;-65
2021/09/20 11:11:37;;;;;;;7.03;4.05;;;;;;;33.99;25.34;102068.56;5082849;28;20120;-64
2021/09/20 11:14:04;;;;;;;4.45;3.40;;;;;;;34.46;23.76;102068.66;5082049;28;20028;-62